createdAt,value
2024-01-16T00:00:23.137Z,3.90
2024-01-16T00:03:11.199Z,4.30
2024-01-16T00:05:39.534Z,3.70
2024-01-16T00:08:08.081Z,3.50
2024-01-16T00:10:36.212Z,3.30
2024-01-16T00:13:04.485Z,3.90
2024-01-16T00:15:32.498Z,3.90
2024-01-16T00:18:00.796Z,3.70
2024-01-16T00:20:30.618Z,2.10
2024-01-16T00:22:58.566Z,1.30
2024-01-16T00:25:26.845Z,1.60
2024-01-16T00:27:56.707Z,1.40
2024-01-16T00:30:24.648Z,1.00
2024-01-16T00:32:55.653Z,1.10
2024-01-16T00:35:23.756Z,1.10
2024-01-16T00:37:51.713Z,1.10
2024-01-16T00:40:19.690Z,0.90
2024-01-16T00:42:47.465Z,1.30
2024-01-16T00:45:15.368Z,1.30
2024-01-16T00:47:43.547Z,1.40
2024-01-16T00:50:11.605Z,1.50
2024-01-16T00:52:39.496Z,1.60
2024-01-16T00:55:07.471Z,2.20
2024-01-16T00:57:35.323Z,1.30
2024-01-16T01:00:05.090Z,2.00
2024-01-16T01:02:32.919Z,2.00
2024-01-16T01:05:00.762Z,2.00
2024-01-16T01:07:28.725Z,1.50
2024-01-16T01:09:56.598Z,1.70
2024-01-16T01:12:24.424Z,1.90
2024-01-16T01:14:52.512Z,2.40
2024-01-16T01:17:20.435Z,2.20
2024-01-16T01:19:48.559Z,3.00
2024-01-16T01:22:16.447Z,2.20
2024-01-16T01:24:44.278Z,2.10
2024-01-16T01:27:12.132Z,2.50
2024-01-16T01:29:39.921Z,2.80
2024-01-16T01:32:08.059Z,2.40
2024-01-16T01:34:36.606Z,2.00
2024-01-16T01:37:04.657Z,2.10
2024-01-16T01:39:32.534Z,2.10
2024-01-16T01:42:00.417Z,2.20
2024-01-16T01:44:29.321Z,2.80
2024-01-16T01:46:57.613Z,2.30
2024-01-16T01:49:26.597Z,2.30
2024-01-16T01:51:55.570Z,1.80
2024-01-16T01:54:24.056Z,2.40
2024-01-16T01:56:53.554Z,2.90
2024-01-16T01:59:23.316Z,1.50
2024-01-16T02:01:56.326Z,2.10
2024-01-16T02:04:26.002Z,2.50
2024-01-16T02:06:54.816Z,2.10
2024-01-16T02:09:25.929Z,1.80
2024-01-16T02:11:54.808Z,2.30
2024-01-16T02:14:23.124Z,2.10
2024-01-16T02:16:52.261Z,1.90
2024-01-16T02:19:20.236Z,1.80
2024-01-16T02:21:52.752Z,2.00
2024-01-16T02:24:20.812Z,2.10
2024-01-16T02:26:48.812Z,2.70
2024-01-16T02:29:17.731Z,2.40
2024-01-16T02:31:46.032Z,2.70
2024-01-16T02:34:14.895Z,2.80
2024-01-16T02:36:43.079Z,3.20
2024-01-16T02:39:12.772Z,2.50
2024-01-16T02:41:40.645Z,2.90
2024-01-16T02:44:08.562Z,2.70
2024-01-16T02:46:37.197Z,2.70
2024-01-16T02:49:05.057Z,2.50
2024-01-16T02:51:32.917Z,3.00
2024-01-16T02:54:01.753Z,3.20
2024-01-16T02:56:29.717Z,2.40
2024-01-16T02:58:59.746Z,2.10
2024-01-16T03:01:28.452Z,3.30
2024-01-16T03:03:56.249Z,3.60
2024-01-16T03:06:29.761Z,3.40
2024-01-16T03:08:58.115Z,5.00
2024-01-16T03:11:26.268Z,3.20
2024-01-16T03:13:54.468Z,3.00
2024-01-16T03:16:22.922Z,3.40
2024-01-16T03:18:51.252Z,3.10
2024-01-16T03:21:19.281Z,2.90
2024-01-16T03:23:47.228Z,2.60
2024-01-16T03:26:15.519Z,2.70
2024-01-16T03:28:43.701Z,2.60
2024-01-16T03:31:13.922Z,2.30
2024-01-16T03:33:44.181Z,2.90
2024-01-16T03:36:14.683Z,2.50
2024-01-16T03:38:45.977Z,3.00
2024-01-16T03:41:14.012Z,2.40
2024-01-16T03:43:42.179Z,2.40
2024-01-16T03:46:12.602Z,2.10
2024-01-16T03:48:40.790Z,2.30
2024-01-16T03:51:10.157Z,2.30
2024-01-16T03:53:37.995Z,2.10
2024-01-16T03:56:06.546Z,2.50
2024-01-16T03:58:34.898Z,2.70
2024-01-16T04:01:02.834Z,2.20
2024-01-16T04:03:30.811Z,2.20
2024-01-16T04:05:58.752Z,2.70
2024-01-16T04:08:26.762Z,2.00
2024-01-16T04:10:54.627Z,1.70
2024-01-16T04:13:22.885Z,1.60
2024-01-16T04:15:50.819Z,1.70
2024-01-16T04:18:19.433Z,1.90
2024-01-16T04:20:47.482Z,1.60
2024-01-16T04:23:15.333Z,2.00
2024-01-16T04:25:43.216Z,2.00
2024-01-16T04:28:15.722Z,2.00
2024-01-16T04:30:43.668Z,2.50
2024-01-16T04:33:11.646Z,2.20
2024-01-16T04:35:39.791Z,2.20
2024-01-16T04:38:08.770Z,2.10
2024-01-16T04:40:36.758Z,2.30
2024-01-16T04:43:04.871Z,2.10
2024-01-16T04:45:32.633Z,2.30
2024-01-16T04:48:00.562Z,2.30
2024-01-16T04:50:33.224Z,2.40
2024-01-16T04:53:02.312Z,2.70
2024-01-16T04:55:30.807Z,2.20
2024-01-16T04:58:01.139Z,2.20
2024-01-16T05:00:29.181Z,2.20
2024-01-16T05:02:57.085Z,2.40
2024-01-16T05:05:27.811Z,2.00
2024-01-16T05:07:58.035Z,2.60
2024-01-16T05:10:25.916Z,2.70
2024-01-16T05:12:55.832Z,2.40
2024-01-16T05:15:23.994Z,2.00
2024-01-16T05:17:51.971Z,2.20
2024-01-16T05:20:20.103Z,2.40
2024-01-16T05:22:48.141Z,2.20
2024-01-16T05:25:16.956Z,2.00
2024-01-16T05:27:44.924Z,2.40
2024-01-16T05:30:13.228Z,2.30
2024-01-16T05:32:47.822Z,2.80
2024-01-16T05:35:15.938Z,2.80
2024-01-16T05:37:43.836Z,2.60
2024-01-16T05:40:12.405Z,2.90
2024-01-16T05:42:40.202Z,2.70
2024-01-16T05:45:08.995Z,2.80
2024-01-16T05:47:37.954Z,2.70
2024-01-16T05:50:07.090Z,2.40
2024-01-16T05:52:34.958Z,2.40
2024-01-16T05:55:04.232Z,2.50
2024-01-16T05:57:35.102Z,2.50
2024-01-16T06:00:04.774Z,3.10
2024-01-16T06:02:33.283Z,3.20
2024-01-16T06:05:01.101Z,3.20
2024-01-16T06:07:28.969Z,2.80
2024-01-16T06:09:57.243Z,1.60
2024-01-16T06:12:25.004Z,1.50
2024-01-16T06:14:52.796Z,1.70
2024-01-16T06:17:20.854Z,1.50
2024-01-16T06:19:48.708Z,1.10
2024-01-16T06:22:16.688Z,1.20
2024-01-16T06:24:44.540Z,1.80
2024-01-16T06:27:12.440Z,1.40
2024-01-16T06:29:40.454Z,1.50
2024-01-16T06:32:08.602Z,1.20
2024-01-16T06:34:36.526Z,1.50
2024-01-16T06:37:04.724Z,1.40
2024-01-16T06:39:32.734Z,1.50
2024-01-16T06:42:00.536Z,1.10
2024-01-16T06:44:28.403Z,2.10
2024-01-16T06:46:56.697Z,1.60
2024-01-16T06:49:24.647Z,1.40
2024-01-16T06:51:52.522Z,1.70
2024-01-16T06:54:21.526Z,1.60
2024-01-16T06:56:50.350Z,1.60
2024-01-16T06:59:21.040Z,2.20
2024-01-16T07:01:50.120Z,1.90
2024-01-16T07:04:18.117Z,1.80
2024-01-16T07:06:46.179Z,1.50
2024-01-16T07:09:14.465Z,1.40
2024-01-16T07:11:44.153Z,1.80
2024-01-16T07:14:12.217Z,1.90
2024-01-16T07:16:40.835Z,2.00
2024-01-16T07:19:09.000Z,2.10
2024-01-16T07:21:36.947Z,2.50
2024-01-16T07:24:07.874Z,2.10
2024-01-16T07:26:35.909Z,1.90
2024-01-16T07:29:03.823Z,2.40
2024-01-16T07:31:31.985Z,2.10
2024-01-16T07:33:59.986Z,2.70
2024-01-16T07:36:27.920Z,2.80
2024-01-16T07:38:56.320Z,2.20
2024-01-16T07:41:24.498Z,1.80
2024-01-16T07:43:52.354Z,2.30
2024-01-16T07:46:20.113Z,2.00
2024-01-16T07:48:48.426Z,1.90
2024-01-16T07:51:16.388Z,2.20
2024-01-16T07:53:44.330Z,2.20
2024-01-16T07:56:12.779Z,2.40
2024-01-16T07:58:42.417Z,2.90
2024-01-16T08:01:10.514Z,2.40
2024-01-16T08:03:38.414Z,2.20
2024-01-16T08:06:07.360Z,3.10
2024-01-16T08:08:35.601Z,2.60
2024-01-16T08:11:03.678Z,3.10
2024-01-16T08:13:31.613Z,2.90
2024-01-16T08:16:02.370Z,2.90
2024-01-16T08:18:30.472Z,2.30
2024-01-16T08:20:59.071Z,2.90
2024-01-16T08:23:27.308Z,3.00
2024-01-16T08:25:55.213Z,2.90
2024-01-16T08:28:25.706Z,3.00
2024-01-16T08:30:54.254Z,3.20
2024-01-16T08:33:31.094Z,2.90
2024-01-16T08:36:05.697Z,3.10
2024-01-16T08:38:33.556Z,2.70
2024-01-16T08:41:01.518Z,3.30
2024-01-16T08:43:29.541Z,2.80
2024-01-16T08:45:57.482Z,2.70
2024-01-16T08:48:25.429Z,3.30
2024-01-16T08:50:55.565Z,2.70
2024-01-16T08:53:24.816Z,2.30
2024-01-16T08:55:52.775Z,2.40
2024-01-16T08:58:20.971Z,2.50
2024-01-16T09:00:48.986Z,2.50
2024-01-16T09:03:17.589Z,2.50
2024-01-16T09:05:45.962Z,2.60
2024-01-16T09:08:14.339Z,2.40
2024-01-16T09:10:42.392Z,2.20
2024-01-16T09:13:10.451Z,2.00
2024-01-16T09:15:38.411Z,2.30
2024-01-16T09:18:07.264Z,2.10
2024-01-16T09:20:36.131Z,2.00
2024-01-16T09:23:04.136Z,2.20
2024-01-16T09:25:31.953Z,2.50
2024-01-16T09:28:00.237Z,2.20
2024-01-16T09:30:28.305Z,2.50
2024-01-16T09:32:56.414Z,2.20
2024-01-16T09:35:27.210Z,2.10
2024-01-16T09:37:55.265Z,2.50
2024-01-16T09:40:23.178Z,2.40
2024-01-16T09:42:51.558Z,2.90
2024-01-16T09:45:23.145Z,2.40
2024-01-16T09:47:53.897Z,2.30
2024-01-16T09:50:23.506Z,2.80
2024-01-16T09:52:51.618Z,2.60
2024-01-16T09:55:19.599Z,2.80
2024-01-16T09:57:50.050Z,2.20
2024-01-16T10:00:18.221Z,2.20
2024-01-16T10:02:46.458Z,3.20
2024-01-16T10:05:15.197Z,2.80
2024-01-16T10:07:46.699Z,2.70
2024-01-16T10:10:17.768Z,2.60
2024-01-16T10:12:51.115Z,2.80
2024-01-16T10:15:21.209Z,2.90
2024-01-16T10:17:49.127Z,3.50
2024-01-16T10:20:19.742Z,3.20
2024-01-16T10:22:55.278Z,2.80
2024-01-16T10:25:23.891Z,3.10
2024-01-16T10:28:05.034Z,3.20
2024-01-16T10:30:33.980Z,2.80
2024-01-16T10:33:16.196Z,2.60
2024-01-16T10:35:44.336Z,2.20
2024-01-16T10:38:21.782Z,2.80
2024-01-16T10:41:05.630Z,3.00
2024-01-16T10:43:33.783Z,2.60
2024-01-16T10:46:17.724Z,2.30
2024-01-16T10:48:59.586Z,2.50
2024-01-16T10:51:28.761Z,2.30
2024-01-16T10:54:15.839Z,2.50
2024-01-16T10:56:47.616Z,2.20
2024-01-16T10:59:21.917Z,2.50
2024-01-16T11:01:55.123Z,2.60
2024-01-16T11:04:23.980Z,2.60
2024-01-16T11:06:56.189Z,2.60
2024-01-16T11:09:25.453Z,3.00
2024-01-16T11:11:55.540Z,2.90
2024-01-16T11:14:24.682Z,3.00
2024-01-16T11:16:54.640Z,2.40
2024-01-16T11:19:37.937Z,2.00
2024-01-16T11:22:11.726Z,2.60
2024-01-16T11:24:40.183Z,2.60
2024-01-16T11:27:09.404Z,3.00
2024-01-16T11:29:38.037Z,2.50
2024-01-16T11:32:18.097Z,2.90
2024-01-16T11:34:57.077Z,2.60
2024-01-16T11:37:34.055Z,3.00
2024-01-16T11:40:23.906Z,2.50
2024-01-16T11:42:54.441Z,2.50
2024-01-16T11:45:28.711Z,2.90
2024-01-16T11:48:13.671Z,2.60
2024-01-16T11:50:43.333Z,3.00
2024-01-16T11:53:11.535Z,3.00
2024-01-16T11:55:54.274Z,2.60
2024-01-16T11:58:46.780Z,2.90
2024-01-16T12:01:17.841Z,3.30
2024-01-16T12:03:45.972Z,3.40
2024-01-16T12:06:17.485Z,3.40
2024-01-16T12:08:45.879Z,3.90
2024-01-16T12:11:22.744Z,3.30
2024-01-16T12:16:31.127Z,3.60
2024-01-16T12:19:09.550Z,3.30
2024-01-16T12:21:45.266Z,3.10
2024-01-16T12:24:17.222Z,3.20
2024-01-16T12:26:46.904Z,3.10
2024-01-16T12:29:19.174Z,3.00
2024-01-16T12:31:46.972Z,3.20
2024-01-16T12:34:15.261Z,3.90
2024-01-16T12:36:45.425Z,4.40
2024-01-16T12:39:14.053Z,4.00
2024-01-16T12:41:43.880Z,3.70
2024-01-16T12:44:16.474Z,3.30
2024-01-16T12:46:55.998Z,3.70
2024-01-16T12:49:25.323Z,3.50
2024-01-16T12:52:23.723Z,3.80
2024-01-16T12:55:01.513Z,3.70
2024-01-16T12:57:30.430Z,3.60
2024-01-16T13:00:02.123Z,3.40
2024-01-16T13:02:32.371Z,3.50
2024-01-16T13:05:03.397Z,2.90
2024-01-16T13:07:34.989Z,2.90
2024-01-16T13:10:13.651Z,4.20
2024-01-16T13:12:42.915Z,3.30
2024-01-16T13:15:12.659Z,2.70
2024-01-16T13:17:40.776Z,3.00
2024-01-16T13:20:11.688Z,2.60
2024-01-16T13:22:44.895Z,2.30
2024-01-16T13:25:17.043Z,2.60
2024-01-16T13:27:44.926Z,3.00
2024-01-16T13:30:14.051Z,2.30
2024-01-16T13:32:42.907Z,2.70
2024-01-16T13:35:11.091Z,2.90
2024-01-16T13:37:39.424Z,2.30
2024-01-16T13:40:17.252Z,2.40
2024-01-16T13:42:46.479Z,2.50
2024-01-16T13:45:14.874Z,2.70
2024-01-16T13:47:44.002Z,2.50
2024-01-16T13:50:12.005Z,2.50
2024-01-16T13:52:41.700Z,2.70
2024-01-16T13:55:10.219Z,2.70
2024-01-16T13:57:38.593Z,2.50
2024-01-16T14:00:08.940Z,2.80
2024-01-16T14:02:38.807Z,2.60
2024-01-16T14:05:07.273Z,2.40
2024-01-16T14:07:35.291Z,3.10
2024-01-16T14:10:05.990Z,3.00
2024-01-16T14:12:34.623Z,3.00
2024-01-16T14:15:06.361Z,3.20
2024-01-16T14:17:35.324Z,4.00
2024-01-16T14:20:04.083Z,4.70
2024-01-16T14:22:32.053Z,3.80
2024-01-16T14:24:59.897Z,2.90
2024-01-16T14:27:27.688Z,4.40
2024-01-16T14:29:55.616Z,3.40
2024-01-16T14:32:23.542Z,4.80
2024-01-16T14:34:51.921Z,4.60
2024-01-16T14:37:19.832Z,4.10
2024-01-16T14:39:47.614Z,4.40
2024-01-16T14:42:15.815Z,4.70
2024-01-16T14:44:43.738Z,5.00
2024-01-16T14:47:11.951Z,4.70
2024-01-16T14:49:39.831Z,5.20
2024-01-16T14:52:09.414Z,4.70
2024-01-16T14:54:37.323Z,3.70
2024-01-16T14:57:08.076Z,3.70
2024-01-16T14:59:36.103Z,3.40
2024-01-16T15:02:13.946Z,3.50
2024-01-16T15:04:47.120Z,3.70
2024-01-16T15:07:16.754Z,3.70
2024-01-16T15:09:44.646Z,4.30
2024-01-16T15:12:12.472Z,4.10
2024-01-16T15:14:40.430Z,4.10
2024-01-16T15:17:08.508Z,4.50
2024-01-16T15:19:38.634Z,4.00
2024-01-16T15:22:07.416Z,4.30
2024-01-16T15:24:35.225Z,4.10
2024-01-16T15:27:04.515Z,4.70
2024-01-16T15:29:32.898Z,5.90
2024-01-16T15:32:00.861Z,4.50
2024-01-16T15:34:28.700Z,4.40
2024-01-16T15:36:56.910Z,4.40
2024-01-16T15:39:24.979Z,4.90
2024-01-16T15:41:52.817Z,3.70
2024-01-16T15:44:20.724Z,4.60
2024-01-16T15:46:55.148Z,4.70
2024-01-16T15:49:23.332Z,4.40
2024-01-16T15:51:51.409Z,4.00
2024-01-16T15:54:19.664Z,5.40
2024-01-16T15:56:50.010Z,5.20
2024-01-16T15:59:19.219Z,4.90
2024-01-16T16:01:47.115Z,4.20
2024-01-16T16:04:15.334Z,5.90
2024-01-16T16:06:43.506Z,5.50
2024-01-16T16:09:12.198Z,5.40
2024-01-16T16:11:45.642Z,4.90
2024-01-16T16:14:14.619Z,3.60
2024-01-16T16:16:48.345Z,4.20
2024-01-16T16:19:17.065Z,4.60
2024-01-16T16:21:46.326Z,4.60
2024-01-16T16:24:14.297Z,5.90
2024-01-16T16:26:44.391Z,4.70
2024-01-16T16:29:13.919Z,5.50
2024-01-16T16:31:42.307Z,5.60
2024-01-16T16:34:13.223Z,5.70
2024-01-16T16:36:44.670Z,5.60
2024-01-16T16:39:17.999Z,5.20
2024-01-16T16:41:48.062Z,6.00
2024-01-16T16:44:16.428Z,5.90
2024-01-16T16:46:44.455Z,5.50
2024-01-16T16:49:12.894Z,6.00
2024-01-16T16:51:43.423Z,6.60
2024-01-16T16:54:12.425Z,6.90
2024-01-16T16:56:45.464Z,6.40
2024-01-16T17:01:41.706Z,6.50
2024-01-16T17:04:09.997Z,6.80
2024-01-16T17:06:38.306Z,6.20
2024-01-16T17:09:13.180Z,6.70
2024-01-16T17:11:41.333Z,6.50
2024-01-16T17:14:10.587Z,7.10
2024-01-16T17:16:38.939Z,7.00
2024-01-16T17:19:07.113Z,6.70
2024-01-16T17:21:35.114Z,6.40
2024-01-16T17:24:03.127Z,6.30
2024-01-16T17:26:31.716Z,7.10
2024-01-16T17:29:02.200Z,6.40
2024-01-16T17:31:30.376Z,5.90
2024-01-16T17:33:58.852Z,6.80
2024-01-16T17:36:29.871Z,7.60
2024-01-16T17:39:01.651Z,7.00
2024-01-16T17:41:31.083Z,8.10
2024-01-16T17:43:59.575Z,7.60
2024-01-16T17:46:27.397Z,7.20
2024-01-16T17:48:56.259Z,8.50
2024-01-16T17:51:26.352Z,7.20
2024-01-16T17:53:54.768Z,8.90
2024-01-16T17:56:25.367Z,9.20
2024-01-16T17:58:55.290Z,7.00
2024-01-16T18:01:23.184Z,7.70
2024-01-16T18:03:51.109Z,7.40
2024-01-16T18:06:22.100Z,8.30
2024-01-16T18:08:50.959Z,8.40
2024-01-16T18:11:19.378Z,9.70
2024-01-16T18:13:47.217Z,8.50
2024-01-16T18:16:15.184Z,10.10
2024-01-16T18:18:44.313Z,9.30
2024-01-16T18:21:13.742Z,9.20
2024-01-16T18:23:42.522Z,8.50
2024-01-16T18:26:13.526Z,10.30
2024-01-16T18:28:41.702Z,8.60
2024-01-16T18:31:12.878Z,10.70
2024-01-16T18:33:42.910Z,9.60
2024-01-16T18:36:11.496Z,9.90
2024-01-16T18:38:46.966Z,9.60
2024-01-16T18:41:15.184Z,10.30
2024-01-16T18:43:44.724Z,9.40
2024-01-16T18:46:15.764Z,9.00
2024-01-16T18:48:44.618Z,9.90
2024-01-16T18:51:15.493Z,9.30
2024-01-16T18:53:43.480Z,11.30
2024-01-16T18:56:16.105Z,10.00
2024-01-16T18:58:44.091Z,11.10
2024-01-16T19:01:12.564Z,9.90
2024-01-16T19:03:40.629Z,10.50
2024-01-16T19:06:14.973Z,10.50
2024-01-16T19:08:43.523Z,11.40
2024-01-16T19:11:11.858Z,12.20
2024-01-16T19:13:44.227Z,11.90
2024-01-16T19:16:12.696Z,11.10
2024-01-16T19:18:45.888Z,12.10
2024-01-16T19:21:13.871Z,11.70
2024-01-16T19:23:42.013Z,11.30
2024-01-16T19:26:10.146Z,11.80
2024-01-16T19:28:38.054Z,11.30
2024-01-16T19:31:06.447Z,11.50
2024-01-16T19:33:34.739Z,11.20
2024-01-16T19:36:05.275Z,13.00
2024-01-16T19:38:35.814Z,11.30
2024-01-16T19:41:04.196Z,12.40
2024-01-16T19:43:33.290Z,11.60
2024-01-16T19:46:02.036Z,11.40
2024-01-16T19:48:30.437Z,12.40
2024-01-16T19:50:58.564Z,13.20
2024-01-16T19:53:27.111Z,11.00
2024-01-16T19:55:58.325Z,12.50
2024-01-16T19:58:26.120Z,11.00
2024-01-16T20:00:54.210Z,12.50
2024-01-16T20:03:22.223Z,10.80
2024-01-16T20:05:50.176Z,10.90
2024-01-16T20:08:18.105Z,11.20
2024-01-16T20:10:45.975Z,10.10
2024-01-16T20:13:13.996Z,10.60
2024-01-16T20:15:42.117Z,10.90
2024-01-16T20:18:11.266Z,11.20
2024-01-16T20:20:40.219Z,10.20
2024-01-16T20:23:09.491Z,10.50
2024-01-16T20:25:38.175Z,11.30
2024-01-16T20:28:06.672Z,9.90
2024-01-16T20:30:34.836Z,10.20
2024-01-16T20:33:02.758Z,11.00
2024-01-16T20:35:30.906Z,10.60
2024-01-16T20:37:58.786Z,11.20
2024-01-16T20:40:26.671Z,10.10
2024-01-16T20:42:54.749Z,9.80
2024-01-16T20:45:22.827Z,9.60
2024-01-16T20:47:51.189Z,9.20
2024-01-16T20:50:19.488Z,9.30
2024-01-16T20:52:47.441Z,9.70
2024-01-16T20:55:15.376Z,8.90
2024-01-16T20:57:45.070Z,9.30
2024-01-16T21:00:14.851Z,9.70
2024-01-16T21:02:44.241Z,9.00
2024-01-16T21:05:12.744Z,9.40
2024-01-16T21:07:42.175Z,9.00
2024-01-16T21:10:10.708Z,10.20
2024-01-16T21:12:39.208Z,9.80
2024-01-16T21:15:07.800Z,9.30
2024-01-16T21:17:35.880Z,9.50
2024-01-16T21:20:07.329Z,9.10
2024-01-16T21:22:37.087Z,9.80
2024-01-16T21:25:06.470Z,9.10
2024-01-16T21:27:35.263Z,9.30
2024-01-16T21:30:04.174Z,8.60
2024-01-16T21:32:32.247Z,10.20
2024-01-16T21:35:00.253Z,8.80
2024-01-16T21:37:28.398Z,9.60
2024-01-16T21:39:56.564Z,9.20
2024-01-16T21:42:24.563Z,11.20
2024-01-16T21:44:54.527Z,10.30
2024-01-16T21:47:25.205Z,8.30
2024-01-16T21:49:53.596Z,9.70
2024-01-16T21:52:22.193Z,9.80
2024-01-16T21:54:50.528Z,8.40
2024-01-16T21:57:18.755Z,8.80
2024-01-16T21:59:46.776Z,8.40
2024-01-16T22:02:15.815Z,7.60
2024-01-16T22:04:43.842Z,9.60
2024-01-16T22:07:12.058Z,8.30
2024-01-16T22:09:40.175Z,8.20
2024-01-16T22:12:09.844Z,7.80
2024-01-16T22:14:39.173Z,8.50
2024-01-16T22:17:08.333Z,7.10
2024-01-16T22:19:36.397Z,7.30
2024-01-16T22:22:04.518Z,7.80
2024-01-16T22:24:32.552Z,8.00
2024-01-16T22:27:00.622Z,7.10
2024-01-16T22:29:28.554Z,8.30
2024-01-16T22:31:56.439Z,7.90
2024-01-16T22:34:25.886Z,7.90
2024-01-16T22:36:54.055Z,8.20
2024-01-16T22:39:25.458Z,8.00
2024-01-16T22:41:53.634Z,6.30
2024-01-16T22:44:23.401Z,7.50
2024-01-16T22:46:51.399Z,7.80
2024-01-16T22:49:19.362Z,8.50
2024-01-16T22:51:48.532Z,7.80
2024-01-16T22:54:16.664Z,8.40
2024-01-16T22:56:44.766Z,6.70
2024-01-16T22:59:12.812Z,7.20
2024-01-16T23:01:40.618Z,8.00
2024-01-16T23:04:09.394Z,8.90
2024-01-16T23:06:37.488Z,8.10
2024-01-16T23:09:08.288Z,8.00
2024-01-16T23:11:36.640Z,10.40
2024-01-16T23:14:05.343Z,9.60
2024-01-16T23:16:33.743Z,9.20
2024-01-16T23:19:01.974Z,9.60
2024-01-16T23:21:30.039Z,9.80
2024-01-16T23:23:57.992Z,9.20
2024-01-16T23:26:27.330Z,8.80
2024-01-16T23:28:55.366Z,8.20
2024-01-16T23:31:23.248Z,8.30
2024-01-16T23:33:51.164Z,9.00
2024-01-16T23:36:19.157Z,8.30
2024-01-16T23:38:47.111Z,9.00
2024-01-16T23:41:14.968Z,10.10
2024-01-16T23:43:44.445Z,7.60
2024-01-16T23:46:12.935Z,8.00
2024-01-16T23:48:43.130Z,8.60
2024-01-16T23:51:11.740Z,8.20
2024-01-16T23:53:39.678Z,8.10
2024-01-16T23:56:08.187Z,8.20
2024-01-16T23:58:36.229Z,8.00
